Time;durP1;ratioP1;P1;durP2;ratioP2;P2;SDS_P1;SDS_P2;PMS_P1;PMS_P2;Temp;Humidity;BMP_temperature;BMP_pressure;BME280_temperature;BME280_humidity;BME280_pressure;Samples;Min_cycle;Max_cycle;Signal;HPM_P1;HPM_P2
2022/10/17 00:00:21;;;;;;;0.00;0.00;;;13.40;99.90;;;;;;5022883;28;20457;-72
2022/10/17 00:02:49;;;;;;;0.00;0.00;;;13.40;99.90;;;;;;5025628;28;20476;-72
2022/10/17 00:05:17;;;;;;;0.00;0.00;;;13.40;99.90;;;;;;5027786;28;20444;-72
2022/10/17 00:07:45;;;;;;;0.00;0.00;;;13.40;99.90;;;;;;5021595;28;20960;-72
2022/10/17 00:10:12;;;;;;;0.00;0.00;;;13.40;99.90;;;;;;5020040;28;20554;-72
2022/10/17 00:12:42;;;;;;;0.00;0.00;;;13.30;99.90;;;;;;5018272;28;20461;-72
2022/10/17 00:15:15;;;;;;;0.00;0.00;;;13.40;99.90;;;;;;5016762;28;20499;-72
2022/10/17 00:17:43;;;;;;;0.00;0.00;;;13.30;99.90;;;;;;5023494;28;20441;-71
2022/10/17 00:20:12;;;;;;;0.00;0.00;;;13.40;99.90;;;;;;5012767;28;20473;-72
2022/10/17 00:22:40;;;;;;;0.00;0.00;;;13.40;99.90;;;;;;5023683;28;20503;-72
2022/10/17 00:25:08;;;;;;;0.00;0.00;;;13.40;99.90;;;;;;5021440;28;20473;-72
2022/10/17 00:27:36;;;;;;;0.00;0.00;;;13.40;99.90;;;;;;5026531;28;20445;-72
2022/10/17 00:30:08;;;;;;;0.00;0.00;;;13.40;99.90;;;;;;5023007;28;20547;-71
2022/10/17 00:32:35;;;;;;;0.00;0.00;;;13.40;99.90;;;;;;5020700;28;21023;-71
2022/10/17 00:35:04;;;;;;;0.00;0.00;;;13.40;99.90;;;;;;5013738;28;20441;-71
2022/10/17 00:37:32;;;;;;;0.00;0.00;;;13.40;99.90;;;;;;5016679;28;20449;-71
2022/10/17 00:40:00;;;;;;;0.00;0.00;;;13.40;99.90;;;;;;5018788;28;21222;-71
2022/10/17 00:42:28;;;;;;;0.00;0.00;;;13.50;99.90;;;;;;5024519;28;20464;-71
2022/10/17 00:45:14;;;;;;;0.00;0.00;;;13.40;99.90;;;;;;5023918;28;20523;-72
2022/10/17 00:47:45;;;;;;;0.00;0.00;;;13.40;99.90;;;;;;5023481;28;21012;-72
2022/10/17 00:50:13;;;;;;;0.00;0.00;;;13.40;99.90;;;;;;5022569;28;20502;-72
2022/10/17 00:52:42;;;;;;;0.00;0.00;;;13.40;99.90;;;;;;5021107;28;20480;-72
2022/10/17 00:55:14;;;;;;;0.00;0.00;;;13.40;99.90;;;;;;5021648;28;20468;-72
2022/10/17 00:57:43;;;;;;;0.00;0.00;;;13.50;99.90;;;;;;5019518;28;20465;-72
2022/10/17 01:00:13;;;;;;;0.00;0.00;;;13.50;99.90;;;;;;5020857;28;20528;-72
2022/10/17 01:02:42;;;;;;;0.00;0.00;;;13.50;99.90;;;;;;5013913;28;20515;-72
2022/10/17 01:05:10;;;;;;;0.00;0.00;;;13.50;99.90;;;;;;5022603;28;20457;-72
2022/10/17 01:07:41;;;;;;;0.00;0.00;;;13.60;99.90;;;;;;5012801;28;20489;-72
2022/10/17 01:10:10;;;;;;;0.00;0.00;;;13.60;99.90;;;;;;5020963;28;20498;-71
2022/10/17 01:12:48;;;;;;;0.00;0.00;;;13.60;99.90;;;;;;5022191;28;20797;-72
2022/10/17 01:15:28;;;;;;;0.00;0.00;;;13.70;99.90;;;;;;5019986;28;20449;-71
2022/10/17 01:18:06;;;;;;;0.00;0.00;;;13.70;99.90;;;;;;5021824;28;20449;-71
2022/10/17 01:21:16;;;;;;;0.00;0.00;;;13.70;99.90;;;;;;5012599;28;20967;-72
2022/10/17 01:24:26;;;;;;;0.00;0.00;;;13.70;99.90;;;;;;5019509;28;20468;-72
2022/10/17 01:27:09;;;;;;;0.00;0.00;;;13.70;99.90;;;;;;5011331;28;20535;-73
2022/10/17 01:30:04;;;;;;;0.00;0.00;;;13.70;99.90;;;;;;5019958;28;20864;-73
2022/10/17 01:32:37;;;;;;;0.00;0.00;;;13.80;99.90;;;;;;5019623;28;20543;-73
2022/10/17 01:35:10;;;;;;;0.00;0.00;;;13.80;99.90;;;;;;5019364;28;20444;-73
2022/10/17 01:37:45;;;;;;;0.00;0.00;;;13.80;99.90;;;;;;5021454;28;20458;-73
2022/10/17 01:40:20;;;;;;;0.00;0.00;;;13.90;99.90;;;;;;5020488;28;20988;-72
2022/10/17 01:43:00;;;;;;;0.00;0.00;;;13.90;99.90;;;;;;5020513;28;20504;-73
2022/10/17 01:45:33;;;;;;;0.00;0.00;;;13.90;99.90;;;;;;5017824;28;20457;-72
2022/10/17 01:48:08;;;;;;;0.00;0.00;;;13.90;99.90;;;;;;5018115;28;20442;-73
2022/10/17 01:50:41;;;;;;;0.00;0.00;;;13.90;99.90;;;;;;5015424;28;20485;-73
2022/10/17 01:53:14;;;;;;;0.00;0.00;;;13.90;99.90;;;;;;5018005;28;20956;-72
2022/10/17 01:55:45;;;;;;;0.00;0.00;;;13.90;99.90;;;;;;5015901;28;20506;-72
2022/10/17 01:58:19;;;;;;;0.00;0.00;;;14.00;99.90;;;;;;5023951;28;20445;-73
2022/10/17 02:00:48;;;;;;;0.00;0.00;;;14.00;99.90;;;;;;5019583;28;20466;-72
2022/10/17 02:03:20;;;;;;;0.00;0.00;;;14.00;99.90;;;;;;5015155;28;20510;-72
2022/10/17 02:05:48;;;;;;;0.00;0.00;;;14.00;99.90;;;;;;5022396;28;20457;-71
2022/10/17 02:08:26;;;;;;;0.00;0.00;;;14.10;99.90;;;;;;5022511;28;20446;-86
2022/10/17 02:10:59;;;;;;;0.00;0.00;;;14.10;99.90;;;;;;5022860;28;20480;-84
2022/10/17 02:13:38;;;;;;;0.00;0.00;;;14.10;99.90;;;;;;5026763;28;20450;-86
2022/10/17 02:19:16;;;;;;;0.00;0.00;;;14.20;99.90;;;;;;5525280;22;20485;-84
2022/10/17 02:21:51;;;;;;;0.00;0.00;;;14.20;99.90;;;;;;5020365;28;20450;-87
2022/10/17 02:24:23;;;;;;;0.00;0.00;;;14.20;99.90;;;;;;5029940;28;20441;-88
2022/10/17 02:26:56;;;;;;;0.00;0.00;;;14.20;99.90;;;;;;5030964;28;20446;-87
2022/10/17 02:29:28;;;;;;;0.00;0.00;;;14.30;99.90;;;;;;5024933;28;20488;-87
2022/10/17 02:32:00;;;;;;;0.00;0.00;;;14.30;99.90;;;;;;5026987;28;20484;-86
2022/10/17 02:34:33;;;;;;;0.00;0.00;;;14.30;99.90;;;;;;5028212;28;20434;-85
2022/10/17 02:37:05;;;;;;;0.00;0.00;;;14.40;99.90;;;;;;5026746;28;20433;-86
2022/10/17 02:39:34;;;;;;;0.00;0.00;;;14.40;99.90;;;;;;5018582;28;20458;-87
2022/10/17 02:42:07;;;;;;;0.00;0.00;;;14.40;99.90;;;;;;5018668;28;20492;-87
2022/10/17 02:44:37;;;;;;;0.00;0.00;;;14.40;99.90;;;;;;5021733;28;20509;-86
2022/10/17 02:47:13;;;;;;;0.00;0.00;;;14.40;99.90;;;;;;5047070;28;20449;-86
2022/10/17 02:49:47;;;;;;;0.00;0.00;;;14.40;99.90;;;;;;5033348;28;20485;-86
2022/10/17 02:52:21;;;;;;;0.00;0.00;;;14.40;99.90;;;;;;5031572;28;20499;-86
2022/10/17 02:54:54;;;;;;;0.00;0.00;;;14.40;99.90;;;;;;5032986;28;20507;-84
2022/10/17 02:57:28;;;;;;;0.00;0.00;;;14.40;99.90;;;;;;5033938;28;21013;-83
2022/10/17 02:59:58;;;;;;;0.00;0.00;;;14.40;99.90;;;;;;5030886;28;20478;-84
2022/10/17 03:02:26;;;;;;;0.00;0.00;;;14.30;99.90;;;;;;5030947;28;20818;-85
2022/10/17 03:04:55;;;;;;;0.00;0.00;;;14.40;99.90;;;;;;5024549;28;20454;-85
2022/10/17 03:07:23;;;;;;;0.00;0.00;;;14.40;99.90;;;;;;5023247;28;20445;-84
2022/10/17 03:09:51;;;;;;;0.00;0.00;;;14.40;99.90;;;;;;5022042;28;20976;-85
2022/10/17 03:12:18;;;;;;;0.00;0.00;;;14.40;99.90;;;;;;5024424;28;20512;-84
2022/10/17 03:14:46;;;;;;;0.00;0.00;;;14.40;99.90;;;;;;5026966;28;20881;-85
2022/10/17 03:17:14;;;;;;;0.00;0.00;;;14.50;99.90;;;;;;5019851;28;20461;-85
2022/10/17 03:19:42;;;;;;;0.00;0.00;;;14.50;99.90;;;;;;5019936;28;20470;-85
2022/10/17 03:22:11;;;;;;;0.00;0.00;;;14.50;99.90;;;;;;5021367;28;20449;-87
2022/10/17 03:24:41;;;;;;;0.00;0.00;;;14.50;99.90;;;;;;5033075;28;20449;-87
2022/10/17 03:27:08;;;;;;;0.00;0.00;;;14.50;99.90;;;;;;5029914;28;20474;-84
2022/10/17 03:29:36;;;;;;;0.00;0.00;;;14.50;99.90;;;;;;5026424;28;20473;-85
2022/10/17 03:32:05;;;;;;;0.00;0.00;;;14.50;99.90;;;;;;5034347;28;20466;-84
2022/10/17 03:34:32;;;;;;;0.00;0.00;;;14.50;99.90;;;;;;5036516;28;20460;-82
2022/10/17 03:37:00;;;;;;;0.00;0.00;;;14.40;99.90;;;;;;5019535;28;20599;-85
2022/10/17 03:39:29;;;;;;;0.00;0.00;;;14.30;99.90;;;;;;5019798;28;20500;-85
2022/10/17 03:41:57;;;;;;;0.00;0.00;;;14.20;99.90;;;;;;5026935;28;20511;-85
2022/10/17 03:44:25;;;;;;;0.00;0.00;;;14.20;99.90;;;;;;5032908;28;20842;-86
2022/10/17 03:46:53;;;;;;;0.00;0.00;;;14.10;99.90;;;;;;5031462;28;20971;-85
2022/10/17 03:49:21;;;;;;;0.00;0.00;;;14.00;99.90;;;;;;5022884;28;20462;-86
2022/10/17 03:51:48;;;;;;;0.00;0.00;;;14.00;99.90;;;;;;5048609;28;20477;-85
2022/10/17 03:54:16;;;;;;;0.00;0.00;;;13.90;99.90;;;;;;5030310;28;20449;-86
2022/10/17 03:56:45;;;;;;;0.00;0.00;;;13.80;99.90;;;;;;5031380;28;20448;-85
2022/10/17 03:59:14;;;;;;;0.00;0.00;;;13.80;99.90;;;;;;5020433;28;20469;-86
2022/10/17 04:01:42;;;;;;;0.00;0.00;;;13.70;99.90;;;;;;5031752;28;20462;-85
2022/10/17 04:04:10;;;;;;;0.00;0.00;;;13.70;99.90;;;;;;5028543;28;20960;-85
2022/10/17 04:06:38;;;;;;;0.00;0.00;;;13.70;99.90;;;;;;5020988;28;20442;-86
2022/10/17 04:09:07;;;;;;;0.00;0.00;;;13.60;99.90;;;;;;5020072;28;20481;-85
2022/10/17 04:11:35;;;;;;;0.00;0.00;;;13.60;99.90;;;;;;5022048;28;20481;-85
2022/10/17 04:14:04;;;;;;;0.00;0.00;;;13.60;99.90;;;;;;5029449;28;20465;-86
2022/10/17 04:16:32;;;;;;;0.00;0.00;;;13.60;99.90;;;;;;5036247;28;20437;-85
2022/10/17 04:19:01;;;;;;;0.00;0.00;;;13.60;99.90;;;;;;5030265;28;20462;-86
2022/10/17 04:21:29;;;;;;;0.00;0.00;;;13.50;99.90;;;;;;5036853;28;20499;-86
2022/10/17 04:24:04;;;;;;;0.00;0.00;;;13.50;99.90;;;;;;5049793;28;20429;-83
2022/10/17 04:26:32;;;;;;;0.00;0.00;;;13.50;99.90;;;;;;5044940;28;20461;-85
2022/10/17 04:29:00;;;;;;;0.00;0.00;;;13.50;99.90;;;;;;5050383;28;20458;-84
2022/10/17 04:31:29;;;;;;;0.00;0.00;;;13.50;99.90;;;;;;5038669;28;20485;-85
2022/10/17 04:33:56;;;;;;;0.00;0.00;;;13.50;99.90;;;;;;5029547;28;20453;-86
2022/10/17 04:36:24;;;;;;;0.00;0.00;;;13.50;99.90;;;;;;5026820;28;20441;-86
2022/10/17 04:38:52;;;;;;;0.00;0.00;;;13.50;99.90;;;;;;5025859;28;20453;-86
2022/10/17 04:41:20;;;;;;;0.00;0.00;;;13.40;99.90;;;;;;5029663;28;21249;-85
2022/10/17 04:43:48;;;;;;;0.00;0.00;;;13.40;99.90;;;;;;5029916;28;20473;-87
2022/10/17 04:46:18;;;;;;;0.00;0.00;;;13.40;99.90;;;;;;5033443;28;20502;-84
2022/10/17 04:48:47;;;;;;;0.00;0.00;;;13.40;99.90;;;;;;5028782;28;20463;-86
2022/10/17 04:51:17;;;;;;;0.00;0.00;;;13.30;99.90;;;;;;5021364;28;20925;-85
2022/10/17 04:53:51;;;;;;;0.00;0.00;;;13.30;99.90;;;;;;5028612;28;20471;-85
2022/10/17 04:56:22;;;;;;;0.00;0.00;;;13.30;99.90;;;;;;5036872;28;20466;-85
2022/10/17 04:58:50;;;;;;;0.00;0.00;;;13.30;99.90;;;;;;5023131;28;20458;-85
2022/10/17 05:01:20;;;;;;;0.00;0.00;;;13.30;99.90;;;;;;5031091;28;20453;-85
2022/10/17 05:03:49;;;;;;;0.00;0.00;;;13.20;99.90;;;;;;5029667;28;20445;-85
2022/10/17 05:06:19;;;;;;;0.00;0.00;;;13.20;99.90;;;;;;5026827;28;20450;-88
2022/10/17 05:08:48;;;;;;;0.00;0.00;;;13.20;99.90;;;;;;5024256;28;20788;-85
2022/10/17 05:11:18;;;;;;;0.00;0.00;;;13.20;99.90;;;;;;5018321;28;20802;-84
2022/10/17 05:13:50;;;;;;;0.00;0.00;;;13.10;99.90;;;;;;5017800;28;20453;-84
2022/10/17 05:16:17;;;;;;;0.00;0.00;;;13.10;99.90;;;;;;4999295;28;20984;-84
2022/10/17 05:18:50;;;;;;;0.00;0.00;;;13.00;99.90;;;;;;5018710;28;20469;-85
2022/10/17 05:21:21;;;;;;;0.00;0.00;;;13.00;99.90;;;;;;5029238;28;20456;-87
2022/10/17 05:23:49;;;;;;;0.00;0.00;;;13.00;99.90;;;;;;5021423;28;20525;-85
2022/10/17 05:26:17;;;;;;;0.00;0.00;;;12.90;99.90;;;;;;5029197;28;20448;-85
2022/10/17 05:28:45;;;;;;;0.00;0.00;;;12.90;99.90;;;;;;5029794;28;20484;-85
2022/10/17 05:31:14;;;;;;;0.00;0.00;;;12.90;99.90;;;;;;5025269;28;20453;-85
2022/10/17 05:33:42;;;;;;;0.00;0.00;;;12.80;99.90;;;;;;5031165;28;20473;-83
2022/10/17 05:36:11;;;;;;;0.00;0.00;;;12.80;99.90;;;;;;5026396;28;20785;-86
2022/10/17 05:38:39;;;;;;;0.00;0.00;;;12.80;99.90;;;;;;5020281;28;20475;-86
2022/10/17 05:41:07;;;;;;;0.00;0.00;;;12.80;99.90;;;;;;5024862;28;20468;-86
2022/10/17 05:43:35;;;;;;;0.00;0.00;;;12.70;99.90;;;;;;5029677;28;20445;-86
2022/10/17 05:46:05;;;;;;;0.00;0.00;;;12.70;99.90;;;;;;5026133;28;20540;-86
2022/10/17 05:48:44;;;;;;;0.00;0.00;;;12.70;99.90;;;;;;5023805;28;20971;-88
2022/10/17 05:51:14;;;;;;;0.00;0.00;;;12.70;99.90;;;;;;5018170;28;20477;-88
2022/10/17 05:53:42;;;;;;;0.00;0.00;;;12.70;99.90;;;;;;5024167;28;20832;-87
2022/10/17 05:56:12;;;;;;;0.00;0.00;;;12.70;99.90;;;;;;5026641;28;20449;-87
2022/10/17 05:58:41;;;;;;;0.00;0.00;;;12.70;99.90;;;;;;5036596;28;20532;-87
2022/10/17 06:01:19;;;;;;;0.00;0.00;;;12.80;99.90;;;;;;5032242;28;20470;-88
2022/10/17 06:03:47;;;;;;;0.00;0.00;;;12.80;99.90;;;;;;5036278;28;20977;-88
2022/10/17 06:06:18;;;;;;;0.00;0.00;;;12.80;99.90;;;;;;5027118;28;20453;-87
2022/10/17 06:08:46;;;;;;;0.00;0.00;;;12.90;99.90;;;;;;5031999;28;20869;-87
2022/10/17 06:11:14;;;;;;;0.00;0.00;;;12.90;99.90;;;;;;5024607;28;20816;-87
2022/10/17 06:13:42;;;;;;;0.00;0.00;;;12.90;99.90;;;;;;5017175;28;20478;-89
2022/10/17 06:16:10;;;;;;;0.00;0.00;;;12.90;99.90;;;;;;5016961;28;20458;-87
2022/10/17 06:18:38;;;;;;;0.00;0.00;;;12.90;99.90;;;;;;5027217;28;20458;-87
2022/10/17 06:21:09;;;;;;;0.00;0.00;;;12.90;99.90;;;;;;5027440;28;20457;-87
2022/10/17 06:23:38;;;;;;;0.00;0.00;;;12.90;99.90;;;;;;5022578;28;20803;-88
2022/10/17 06:26:07;;;;;;;0.00;0.00;;;13.00;99.90;;;;;;5031475;28;20476;-88
2022/10/17 06:28:36;;;;;;;0.00;0.00;;;13.00;99.90;;;;;;5030557;28;20471;-88
2022/10/17 06:31:06;;;;;;;0.00;0.00;;;13.00;99.90;;;;;;5028047;28;20940;-87
2022/10/17 06:33:34;;;;;;;0.00;0.00;;;13.00;99.90;;;;;;5019905;28;20469;-86
2022/10/17 06:36:02;;;;;;;0.00;0.00;;;13.00;99.90;;;;;;5030421;28;21017;-87
2022/10/17 06:38:30;;;;;;;0.00;0.00;;;13.10;99.90;;;;;;5025649;28;20457;-87
2022/10/17 06:41:07;;;;;;;0.00;0.00;;;13.10;99.90;;;;;;5026443;28;20462;-87
2022/10/17 06:43:35;;;;;;;0.00;0.00;;;13.10;99.90;;;;;;5022135;28;20499;-86
2022/10/17 06:46:34;;;;;;;0.00;0.00;;;13.20;99.90;;;;;;5031539;28;20483;-87
2022/10/17 06:49:13;;;;;;;0.00;0.00;;;13.20;99.90;;;;;;4968657;28;20982;-86
2022/10/17 06:51:48;;;;;;;0.00;0.00;;;13.20;99.90;;;;;;4968274;28;20745;-89
2022/10/17 06:54:51;;;;;;;0.00;0.00;;;13.20;99.90;;;;;;5021164;28;20893;-88
2022/10/17 06:57:38;;;;;;;0.00;0.00;;;13.30;99.90;;;;;;5027699;28;20449;-88
2022/10/17 07:00:54;;;;;;;0.00;0.00;;;13.30;99.90;;;;;;5016990;28;21044;-88
2022/10/17 07:03:48;;;;;;;0.00;0.00;;;13.40;99.90;;;;;;4963977;28;20946;-88
2022/10/17 07:09:31;;;;;;;0.00;0.00;;;13.50;99.90;;;;;;4929981;29;20806;-88
2022/10/17 07:17:12;;;;;;;0.00;0.00;;;13.70;99.90;;;;;;4849164;29;20496;-88
2022/10/17 07:19:48;;;;;;;0.00;0.00;;;13.80;99.90;;;;;;4963533;28;20570;-87
2022/10/17 07:22:18;;;;;;;0.00;0.00;;;13.80;99.90;;;;;;4966722;28;20514;-88
2022/10/17 07:24:56;;;;;;;0.00;0.00;;;14.00;99.90;;;;;;4974024;28;20439;-88
2022/10/17 07:27:31;;;;;;;0.00;0.00;;;14.10;99.90;;;;;;4962612;28;20687;-88
2022/10/17 07:30:25;;;;;;;0.00;0.00;;;14.20;99.90;;;;;;4969507;28;20463;-84
2022/10/17 07:33:40;;;;;;;0.00;0.00;;;14.40;99.90;;;;;;4954932;28;20472;-87
2022/10/17 07:37:00;;;;;;;0.00;0.00;;;14.60;99.90;;;;;;4976008;28;20443;-85
2022/10/17 07:39:42;;;;;;;0.00;0.00;;;14.70;99.90;;;;;;4862738;29;20587;-86
2022/10/17 07:42:10;;;;;;;0.00;0.00;;;14.90;99.90;;;;;;4946689;29;20842;-84
2022/10/17 07:44:38;;;;;;;0.00;0.00;;;15.10;99.90;;;;;;4954944;28;20515;-84
2022/10/17 07:47:06;;;;;;;0.00;0.00;;;15.20;99.90;;;;;;4954755;29;20885;-85
2022/10/17 07:49:34;;;;;;;0.00;0.00;;;15.30;99.90;;;;;;4945248;28;20971;-85
2022/10/17 07:52:06;;;;;;;0.00;0.00;;;15.30;99.90;;;;;;4954032;29;20453;-86
2022/10/17 07:54:34;;;;;;;0.00;0.00;;;15.40;99.90;;;;;;4957956;28;21030;-86
2022/10/17 07:57:09;;;;;;;0.00;0.00;;;15.40;99.90;;;;;;4974690;28;20454;-87
2022/10/17 07:59:50;;;;;;;0.00;0.00;;;15.40;99.90;;;;;;5004015;28;20467;-86
2022/10/17 08:02:23;;;;;;;0.00;0.00;;;15.40;99.90;;;;;;5005468;28;20474;-87
2022/10/17 08:04:52;;;;;;;0.00;0.00;;;15.40;99.90;;;;;;5009121;28;20478;-85
2022/10/17 08:07:40;;;;;;;0.00;0.00;;;15.70;99.90;;;;;;5024108;28;20523;-86
2022/10/17 08:10:13;;;;;;;0.00;0.00;;;15.80;99.90;;;;;;5042978;28;20476;-86
2022/10/17 08:12:41;;;;;;;0.00;0.00;;;16.10;99.90;;;;;;5027139;28;20953;-86
2022/10/17 08:15:12;;;;;;;0.00;0.00;;;16.30;99.90;;;;;;5019796;28;20580;-85
2022/10/17 08:17:49;;;;;;;0.00;0.00;;;16.50;99.90;;;;;;5021799;28;20462;-90
2022/10/17 08:23:05;;;;;;;0.00;0.00;;;16.80;99.90;;;;;;5017314;28;20465;-88
2022/10/17 08:25:34;;;;;;;0.00;0.00;;;17.00;99.90;;;;;;5028383;28;20933;-89
2022/10/17 08:28:05;;;;;;;0.00;0.00;;;17.10;99.90;;;;;;5029347;28;20847;-89
2022/10/17 08:31:01;;;;;;;0.00;0.00;;;17.10;99.90;;;;;;5025237;28;20507;-91
2022/10/17 08:33:59;;;;;;;0.00;0.00;;;17.20;99.90;;;;;;5023631;28;20487;-91
2022/10/17 08:36:30;;;;;;;0.00;0.00;;;17.30;99.90;;;;;;5023583;28;20460;-87
2022/10/17 08:38:59;;;;;;;0.00;0.00;;;17.30;99.90;;;;;;5020291;28;21146;-86
2022/10/17 08:41:41;;;;;;;0.00;0.00;;;17.30;99.90;;;;;;5019438;28;20452;-86
2022/10/17 08:44:24;;;;;;;0.00;0.00;;;17.40;99.90;;;;;;5026178;28;20519;-85
2022/10/17 08:46:57;;;;;;;0.00;0.00;;;17.50;99.90;;;;;;5019393;28;20471;-86
2022/10/17 08:49:33;;;;;;;0.00;0.00;;;17.50;99.90;;;;;;5019120;28;20490;-85
2022/10/17 08:52:06;;;;;;;0.00;0.00;;;17.60;99.90;;;;;;5020070;28;20412;-85
2022/10/17 08:54:41;;;;;;;0.00;0.00;;;17.50;99.90;;;;;;5019930;28;20473;-86
2022/10/17 08:57:12;;;;;;;0.00;0.00;;;17.60;99.90;;;;;;5021697;28;20957;-85
2022/10/17 08:59:41;;;;;;;0.00;0.00;;;17.70;99.90;;;;;;5030907;28;20834;-86
2022/10/17 09:02:30;;;;;;;0.00;0.00;;;17.80;99.90;;;;;;5030122;28;20826;-84
2022/10/17 09:05:30;;;;;;;0.00;0.00;;;17.90;99.90;;;;;;5012133;28;20476;-86
2022/10/17 09:08:06;;;;;;;0.00;0.00;;;18.00;99.90;;;;;;5026516;28;20444;-86
2022/10/17 09:10:47;;;;;;;0.00;0.00;;;18.00;99.90;;;;;;5027622;28;20558;-86
2022/10/17 09:13:24;;;;;;;0.00;0.00;;;17.90;99.90;;;;;;5036429;28;20466;-85
2022/10/17 09:16:14;;;;;;;0.00;0.00;;;18.00;99.90;;;;;;5045568;28;20468;-87
2022/10/17 09:18:47;;;;;;;0.00;0.00;;;18.10;99.90;;;;;;5047050;28;20471;-83
2022/10/17 09:21:22;;;;;;;0.00;0.00;;;18.30;99.90;;;;;;5042085;28;20446;-86
2022/10/17 09:23:53;;;;;;;0.00;0.00;;;18.50;99.90;;;;;;5039974;28;20458;-87
2022/10/17 09:26:39;;;;;;;0.00;0.00;;;18.60;99.90;;;;;;5024920;28;20543;-87
2022/10/17 09:29:14;;;;;;;0.00;0.00;;;18.70;99.90;;;;;;5018693;28;20457;-86
2022/10/17 09:31:46;;;;;;;0.00;0.00;;;18.90;99.90;;;;;;5023094;28;20465;-87
2022/10/17 09:34:16;;;;;;;0.00;0.00;;;19.00;99.90;;;;;;5028299;28;20481;-86
2022/10/17 09:36:44;;;;;;;0.00;0.00;;;19.00;99.90;;;;;;5030685;28;20466;-87
2022/10/17 09:39:14;;;;;;;0.00;0.00;;;19.00;99.90;;;;;;5027124;28;20477;-87
2022/10/17 09:41:48;;;;;;;0.00;0.00;;;19.00;99.90;;;;;;5031110;28;20485;-86
2022/10/17 09:44:20;;;;;;;0.00;0.00;;;18.90;99.90;;;;;;5027965;28;20442;-87
2022/10/17 09:46:59;;;;;;;0.00;0.00;;;18.90;99.90;;;;;;5022474;28;20452;-86
2022/10/17 09:49:32;;;;;;;0.00;0.00;;;18.90;99.90;;;;;;5017834;28;20477;-87
2022/10/17 09:52:01;;;;;;;0.00;0.00;;;18.90;99.90;;;;;;5018137;28;20463;-86
2022/10/17 09:54:39;;;;;;;0.00;0.00;;;18.90;99.90;;;;;;5017219;28;21054;-86
2022/10/17 09:57:10;;;;;;;0.00;0.00;;;18.90;99.90;;;;;;5027796;28;20445;-86
2022/10/17 09:59:41;;;;;;;0.00;0.00;;;19.00;99.90;;;;;;5031456;28;20532;-86
2022/10/17 10:02:15;;;;;;;0.00;0.00;;;19.20;99.90;;;;;;5029614;28;20481;-85
2022/10/17 10:05:01;;;;;;;0.00;0.00;;;19.40;99.90;;;;;;5025475;28;20908;-86
2022/10/17 10:07:35;;;;;;;0.00;0.00;;;19.60;99.90;;;;;;5030966;28;20461;-87
2022/10/17 10:10:05;;;;;;;0.00;0.00;;;19.60;99.90;;;;;;5027019;28;20480;-86
2022/10/17 10:12:38;;;;;;;0.00;0.00;;;19.70;99.90;;;;;;5019896;28;20963;-86
2022/10/17 10:15:36;;;;;;;0.00;0.00;;;19.80;99.90;;;;;;5029895;28;20568;-89
2022/10/17 10:18:34;;;;;;;0.00;0.00;;;19.90;99.90;;;;;;5041525;28;20453;-84
2022/10/17 10:21:09;;;;;;;0.00;0.00;;;20.10;99.90;;;;;;5020941;28;20466;-88
2022/10/17 10:23:39;;;;;;;0.00;0.00;;;20.30;99.90;;;;;;5029432;28;20507;-88
2022/10/17 10:26:21;;;;;;;0.00;0.00;;;20.40;99.90;;;;;;5024287;28;20450;-85
2022/10/17 10:28:56;;;;;;;0.00;0.00;;;20.40;99.90;;;;;;5026544;28;20435;-87
2022/10/17 10:31:34;;;;;;;0.00;0.00;;;20.40;99.90;;;;;;5042733;28;20417;-86
2022/10/17 10:34:21;;;;;;;0.00;0.00;;;20.40;99.90;;;;;;5040355;28;20453;-87
2022/10/17 10:36:55;;;;;;;0.00;0.00;;;20.40;99.90;;;;;;5023641;28;20496;-88
2022/10/17 10:39:45;;;;;;;0.00;0.00;;;20.50;99.90;;;;;;5029327;28;20999;-88
2022/10/17 10:42:22;;;;;;;0.00;0.00;;;20.60;99.90;;;;;;5021808;28;20454;-86
2022/10/17 10:44:53;;;;;;;0.00;0.00;;;20.80;99.90;;;;;;5036282;28;20489;-88
2022/10/17 10:47:25;;;;;;;0.00;0.00;;;20.90;99.90;;;;;;5018155;28;20475;-88
2022/10/17 10:50:08;;;;;;;0.00;0.00;;;20.90;99.90;;;;;;5018458;28;20455;-88
2022/10/17 10:52:43;;;;;;;0.00;0.00;;;21.10;99.90;;;;;;5017627;28;20802;-87
2022/10/17 10:55:22;;;;;;;0.00;0.00;;;21.30;99.90;;;;;;5030099;28;20481;-87
2022/10/17 10:57:54;;;;;;;0.00;0.00;;;21.30;99.90;;;;;;5028509;28;20467;-86
2022/10/17 11:00:27;;;;;;;0.00;0.00;;;21.40;99.90;;;;;;5028966;28;20486;-90
2022/10/17 11:03:03;;;;;;;0.00;0.00;;;21.40;99.90;;;;;;5025605;28;20490;-88
2022/10/17 11:05:44;;;;;;;0.00;0.00;;;21.50;99.90;;;;;;5028929;28;20431;-88
2022/10/17 11:08:20;;;;;;;0.00;0.00;;;21.50;99.90;;;;;;5027157;28;20502;-85
2022/10/17 11:11:00;;;;;;;0.00;0.00;;;21.50;99.90;;;;;;5021016;28;20480;-87
2022/10/17 11:13:34;;;;;;;0.00;0.00;;;21.40;99.90;;;;;;5033158;28;20452;-88
2022/10/17 11:16:21;;;;;;;0.00;0.00;;;21.40;99.90;;;;;;5032011;28;20477;-86
2022/10/17 11:18:56;;;;;;;0.00;0.00;;;21.40;99.90;;;;;;5032972;28;21358;-88
2022/10/17 11:21:36;;;;;;;0.00;0.00;;;21.40;99.90;;;;;;5044153;28;20458;-88
2022/10/17 11:24:12;;;;;;;0.00;0.00;;;21.40;99.90;;;;;;5031134;28;20441;-88
2022/10/17 11:26:45;;;;;;;0.00;0.00;;;21.40;99.90;;;;;;5027283;28;20467;-89
2022/10/17 11:29:13;;;;;;;0.00;0.00;;;21.40;99.90;;;;;;5026241;28;20475;-88
2022/10/17 11:31:52;;;;;;;0.00;0.00;;;21.40;99.90;;;;;;5027082;28;20462;-88
2022/10/17 11:34:25;;;;;;;0.00;0.00;;;21.50;99.90;;;;;;5021430;28;20451;-88
2022/10/17 11:36:59;;;;;;;0.00;0.00;;;21.60;99.90;;;;;;5026242;28;20484;-88
2022/10/17 11:39:33;;;;;;;0.00;0.00;;;21.70;99.90;;;;;;5035461;28;20482;-88
2022/10/17 11:42:05;;;;;;;0.00;0.00;;;21.70;99.90;;;;;;5026098;28;21001;-88
2022/10/17 11:44:36;;;;;;;0.00;0.00;;;21.80;99.90;;;;;;5020669;28;20443;-88
2022/10/17 11:47:26;;;;;;;0.00;0.00;;;21.80;99.90;;;;;;5019804;28;20444;-88
2022/10/17 11:50:00;;;;;;;0.00;0.00;;;21.90;99.90;;;;;;5021328;28;20477;-87
2022/10/17 11:52:51;;;;;;;0.00;0.00;;;21.90;99.90;;;;;;5038735;28;20518;-87
2022/10/17 11:55:25;;;;;;;0.00;0.00;;;21.90;99.90;;;;;;5030445;28;20476;-87
2022/10/17 11:58:03;;;;;;;0.00;0.00;;;21.90;99.90;;;;;;5022779;28;20459;-87
2022/10/17 12:00:48;;;;;;;0.00;0.00;;;21.90;99.90;;;;;;5025379;28;20506;-86
2022/10/17 12:03:40;;;;;;;0.00;0.00;;;21.80;99.90;;;;;;5039545;28;20453;-87
2022/10/17 12:06:16;;;;;;;0.00;0.00;;;21.70;99.90;;;;;;5019915;28;20504;-87
2022/10/17 12:08:49;;;;;;;0.00;0.00;;;21.60;99.90;;;;;;5028946;28;20454;-87
2022/10/17 12:11:29;;;;;;;0.00;0.00;;;21.30;99.90;;;;;;5033367;28;20466;-88
2022/10/17 12:13:57;;;;;;;0.00;0.00;;;21.10;99.90;;;;;;5019810;28;20464;-91
2022/10/17 12:16:45;;;;;;;0.00;0.00;;;20.90;99.90;;;;;;5019013;28;20478;-86
2022/10/17 12:19:29;;;;;;;0.00;0.00;;;20.40;99.90;;;;;;5025681;28;20570;-86
2022/10/17 12:22:02;;;;;;;0.00;0.00;;;20.10;99.90;;;;;;5018873;28;20437;-86
2022/10/17 12:24:44;;;;;;;0.00;0.00;;;19.90;99.90;;;;;;5023651;28;20484;-85
2022/10/17 12:27:42;;;;;;;0.00;0.00;;;19.70;99.90;;;;;;5044847;28;20999;-87
2022/10/17 12:30:20;;;;;;;0.00;0.00;;;19.60;99.90;;;;;;5019944;28;20478;-85
2022/10/17 12:33:20;;;;;;;0.00;0.00;;;19.50;99.90;;;;;;5032295;28;21317;-86
2022/10/17 12:36:11;;;;;;;0.00;0.00;;;19.40;99.90;;;;;;5028521;28;20493;-84
2022/10/17 12:38:41;;;;;;;0.00;0.00;;;19.40;99.90;;;;;;5022876;28;20453;-88
2022/10/17 12:41:13;;;;;;;0.00;0.00;;;19.40;99.90;;;;;;5024956;28;20583;-85
2022/10/17 12:43:51;;;;;;;0.00;0.00;;;19.40;99.90;;;;;;5025909;28;20461;-86
2022/10/17 12:46:56;;;;;;;0.00;0.00;;;19.40;99.90;;;;;;5030037;28;20501;-85
2022/10/17 12:49:57;;;;;;;0.00;0.00;;;19.60;99.90;;;;;;4969342;28;20542;-85
2022/10/17 12:53:03;;;;;;;0.00;0.00;;;19.60;99.90;;;;;;4966093;28;20565;-85
2022/10/17 12:55:31;;;;;;;0.00;0.00;;;19.60;99.90;;;;;;5019888;28;20455;-85
2022/10/17 13:01:25;;;;;;;0.00;0.00;;;19.60;99.90;;;;;;5019417;28;20983;-87
2022/10/17 13:03:53;;;;;;;0.00;0.00;;;19.50;99.90;;;;;;5024961;28;20457;-85
2022/10/17 13:06:25;;;;;;;0.00;0.00;;;19.50;99.90;;;;;;5024644;28;20443;-85
2022/10/17 13:09:30;;;;;;;0.00;0.00;;;19.50;99.90;;;;;;5031917;28;20940;-86
2022/10/17 13:12:15;;;;;;;0.00;0.00;;;19.40;99.90;;;;;;5023398;28;20497;-86
2022/10/17 13:14:52;;;;;;;0.00;0.00;;;19.40;99.90;;;;;;5028921;28;20545;-91
2022/10/17 13:21:00;;;;;;;0.00;0.00;;;19.30;99.90;;;;;;4980790;28;20824;-87
2022/10/17 13:23:51;;;;;;;0.00;0.00;;;19.20;99.90;;;;;;5024339;28;20503;-87
2022/10/17 13:26:45;;;;;;;0.00;0.00;;;19.00;99.90;;;;;;5007083;28;20456;-88
2022/10/17 13:29:15;;;;;;;0.00;0.00;;;18.90;99.90;;;;;;5032869;28;20487;-84
2022/10/17 13:31:44;;;;;;;0.00;0.00;;;18.80;99.90;;;;;;5035001;28;20447;-85
2022/10/17 13:34:17;;;;;;;0.00;0.00;;;18.70;99.90;;;;;;5015751;28;20467;-88
2022/10/17 13:36:48;;;;;;;0.00;0.00;;;18.70;99.90;;;;;;5017575;28;20492;-89
2022/10/17 13:39:21;;;;;;;0.00;0.00;;;18.70;99.90;;;;;;5016777;28;20481;-88
2022/10/17 13:42:22;;;;;;;0.00;0.00;;;18.70;99.90;;;;;;5023179;28;20892;-89
2022/10/17 13:44:51;;;;;;;0.00;0.00;;;18.70;99.90;;;;;;5028684;28;20429;-88
2022/10/17 13:47:30;;;;;;;0.00;0.00;;;18.70;99.90;;;;;;5031456;28;20449;-87